Time;durP1;ratioP1;P1;durP2;ratioP2;P2;SDS_P1;SDS_P2;PMS_P1;PMS_P2;Temp;Humidity;BMP_temperature;BMP_pressure;BME280_temperature;BME280_humidity;BME280_pressure;Samples;Min_cycle;Max_cycle;Signal;HPM_P1;HPM_P2
2021/05/02 00:00:00;;;;;;;17.70;9.32;;;;;;;;;;5081007;28;31879;-72
2021/05/02 00:02:26;;;;;;;15.13;9.27;;;;;;;;;;5080773;28;31878;-71
2021/05/02 00:04:52;;;;;;;14.93;9.95;;;;;;;;;;5080762;28;32416;-71
2021/05/02 00:07:17;;;;;;;12.75;8.45;;;;;;;;;;5080503;28;33159;-71
2021/05/02 00:09:43;;;;;;;15.38;9.25;;;;;;;;;;5079409;28;30324;-71
2021/05/02 00:12:09;;;;;;;16.13;9.27;;;;;;;;;;5080618;28;31992;-71
2021/05/02 00:14:34;;;;;;;18.90;9.40;;;;;;;;;;5080053;28;32676;-71
2021/05/02 00:17:00;;;;;;;19.15;10.00;;;;;;;;;;5081170;28;32819;-71
2021/05/02 00:19:26;;;;;;;14.38;9.88;;;;;;;;;;5080100;28;31825;-71
2021/05/02 00:21:52;;;;;;;15.85;9.30;;;;;;;;;;5079612;28;32202;-73
2021/05/02 00:24:21;;;;;;;14.10;9.65;;;;;;;;;;5080520;28;32835;-73
2021/05/02 00:26:47;;;;;;;18.80;9.55;;;;;;;;;;5080627;28;32195;-73
2021/05/02 00:29:14;;;;;;;14.48;10.10;;;;;;;;;;5080664;28;31959;-73
2021/05/02 00:31:40;;;;;;;19.20;10.73;;;;;;;;;;5080539;28;32958;-72
2021/05/02 00:34:06;;;;;;;16.27;9.85;;;;;;;;;;5080631;28;32543;-73
2021/05/02 00:36:32;;;;;;;19.15;9.52;;;;;;;;;;5080796;28;32282;-73
2021/05/02 00:38:58;;;;;;;16.70;10.15;;;;;;;;;;5080038;28;32964;-73
2021/05/02 00:41:28;;;;;;;15.75;9.82;;;;;;;;;;5080624;28;32988;-73
2021/05/02 00:43:58;;;;;;;19.70;11.95;;;;;;;;;;5079996;28;32474;-73
2021/05/02 00:46:37;;;;;;;19.45;9.27;;;;;;;;;;5080031;28;32231;-73
2021/05/02 00:49:12;;;;;;;19.08;10.65;;;;;;;;;;5082917;28;31839;-73
2021/05/02 00:51:39;;;;;;;19.73;10.85;;;;;;;;;;5084104;28;31906;-73
2021/05/02 00:54:05;;;;;;;15.80;10.25;;;;;;;;;;5083464;28;32441;-73
2021/05/02 00:56:34;;;;;;;15.35;9.40;;;;;;;;;;5083328;28;32242;-72
2021/05/02 00:58:59;;;;;;;16.20;9.98;;;;;;;;;;5083185;28;32738;-73
2021/05/02 01:01:28;;;;;;;17.02;9.85;;;;;;;;;;5083976;28;32029;-73
2021/05/02 01:03:58;;;;;;;15.23;9.90;;;;;;;;;;5083291;28;32526;-73
2021/05/02 01:06:25;;;;;;;18.80;10.07;;;;;;;;;;5083623;28;32269;-73
2021/05/02 01:08:51;;;;;;;17.80;10.27;;;;;;;;;;5082814;28;31947;-73
2021/05/02 01:11:17;;;;;;;16.80;10.23;;;;;;;;;;5083554;28;31990;-73
2021/05/02 01:13:56;;;;;;;15.23;9.80;;;;;;;;;;5082587;28;33545;-72
2021/05/02 01:16:22;;;;;;;16.90;10.65;;;;;;;;;;5083554;28;32347;-73
2021/05/02 01:18:49;;;;;;;15.30;9.95;;;;;;;;;;5082780;28;31777;-74
2021/05/02 01:21:16;;;;;;;14.40;9.48;;;;;;;;;;5082425;28;32278;-73
2021/05/02 01:23:42;;;;;;;18.83;10.77;;;;;;;;;;5082882;28;33572;-73
2021/05/02 01:26:08;;;;;;;18.65;10.68;;;;;;;;;;5083443;28;32800;-71
2021/05/02 01:28:36;;;;;;;19.33;11.20;;;;;;;;;;5083364;28;31942;-71
2021/05/02 01:31:03;;;;;;;14.93;9.40;;;;;;;;;;5081781;28;32923;-72
2021/05/02 01:33:30;;;;;;;14.40;9.90;;;;;;;;;;5083472;28;32612;-71
2021/05/02 01:35:55;;;;;;;21.38;10.90;;;;;;;;;;5083367;28;32313;-71
2021/05/02 01:38:23;;;;;;;16.85;9.50;;;;;;;;;;5082908;28;32864;-72
2021/05/02 01:40:49;;;;;;;16.45;10.23;;;;;;;;;;5082450;28;32963;-71
2021/05/02 01:43:15;;;;;;;17.58;9.30;;;;;;;;;;5083123;28;32465;-71
2021/05/02 01:45:41;;;;;;;14.50;9.52;;;;;;;;;;5083226;28;32892;-72
2021/05/02 01:48:07;;;;;;;21.70;10.27;;;;;;;;;;5083206;28;31946;-73
2021/05/02 01:50:37;;;;;;;15.38;9.57;;;;;;;;;;5082356;28;32123;-72
2021/05/02 01:53:02;;;;;;;17.73;9.60;;;;;;;;;;5082923;28;32583;-72
2021/05/02 01:55:28;;;;;;;17.02;9.90;;;;;;;;;;5082924;28;32172;-73
2021/05/02 01:57:54;;;;;;;15.65;9.20;;;;;;;;;;5081663;28;30594;-73
2021/05/02 02:00:20;;;;;;;18.50;9.57;;;;;;;;;;5081564;28;32937;-73
2021/05/02 02:02:46;;;;;;;14.93;9.57;;;;;;;;;;5083083;28;32584;-73
2021/05/02 02:05:13;;;;;;;15.05;9.98;;;;;;;;;;5082790;28;32093;-74
2021/05/02 02:07:39;;;;;;;16.13;10.13;;;;;;;;;;5082930;28;32944;-73
2021/05/02 02:10:05;;;;;;;16.83;9.45;;;;;;;;;;5081831;28;33028;-73
2021/05/02 02:12:31;;;;;;;13.48;8.98;;;;;;;;;;5082863;28;32739;-74
2021/05/02 02:14:56;;;;;;;16.67;9.63;;;;;;;;;;5082848;28;32883;-74
2021/05/02 02:17:22;;;;;;;20.50;9.23;;;;;;;;;;5081815;28;31879;-73
2021/05/02 02:19:48;;;;;;;17.48;10.20;;;;;;;;;;5082460;28;32938;-73
2021/05/02 02:22:16;;;;;;;19.90;10.40;;;;;;;;;;5082457;28;36633;-73
2021/05/02 02:24:47;;;;;;;20.65;10.27;;;;;;;;;;5082119;28;32682;-73
2021/05/02 02:27:13;;;;;;;15.23;10.07;;;;;;;;;;5082032;28;31918;-73
2021/05/02 02:29:42;;;;;;;16.73;9.98;;;;;;;;;;5082152;28;31822;-73
2021/05/02 02:32:10;;;;;;;17.42;9.25;;;;;;;;;;5082418;28;32650;-72
2021/05/02 02:34:39;;;;;;;22.80;9.40;;;;;;;;;;5082352;28;32303;-73
2021/05/02 02:37:04;;;;;;;19.80;9.60;;;;;;;;;;5082233;28;32070;-73
2021/05/02 02:39:30;;;;;;;16.85;9.05;;;;;;;;;;5082413;28;32115;-73
2021/05/02 02:41:56;;;;;;;16.63;9.05;;;;;;;;;;5082209;28;33140;-73
2021/05/02 02:44:22;;;;;;;20.30;9.68;;;;;;;;;;5080206;28;30674;-73
2021/05/02 02:46:51;;;;;;;12.10;7.55;;;;;;;;;;5081050;28;32316;-73
2021/05/02 02:49:17;;;;;;;13.23;7.45;;;;;;;;;;5082038;28;31919;-73
2021/05/02 02:51:44;;;;;;;13.77;7.75;;;;;;;;;;5082193;28;32576;-73
2021/05/02 02:54:11;;;;;;;12.20;6.55;;;;;;;;;;5081634;28;32862;-73
2021/05/02 02:56:39;;;;;;;9.23;4.85;;;;;;;;;;5082056;28;32051;-72
2021/05/02 02:59:18;;;;;;;4.85;3.80;;;;;;;;;;5081377;28;33004;-73
2021/05/02 03:01:46;;;;;;;6.15;3.92;;;;;;;;;;5081480;28;33568;-72
2021/05/02 03:04:15;;;;;;;5.82;3.10;;;;;;;;;;5081732;28;33233;-72
2021/05/02 03:06:41;;;;;;;6.55;3.33;;;;;;;;;;5081292;28;32870;-72
2021/05/02 03:09:07;;;;;;;5.85;3.17;;;;;;;;;;5081337;28;32963;-72
2021/05/02 03:11:33;;;;;;;8.93;3.42;;;;;;;;;;5080516;28;33723;-72
2021/05/02 03:13:59;;;;;;;4.45;3.13;;;;;;;;;;5063714;28;32043;-72
2021/05/02 03:16:27;;;;;;;5.53;3.22;;;;;;;;;;5081889;28;31903;-72
2021/05/02 03:18:55;;;;;;;7.18;3.67;;;;;;;;;;5081612;28;32841;-72
2021/05/02 03:21:40;;;;;;;5.10;3.63;;;;;;;;;;5081192;28;32605;-72
2021/05/02 03:24:05;;;;;;;;;;;;;;;;;;5082707;28;36072;-72
2021/05/02 03:26:31;;;;;;;6.47;3.20;;;;;;;;;;5081692;28;31767;-72
2021/05/02 03:28:59;;;;;;;5.57;3.33;;;;;;;;;;5080827;28;32235;-72
2021/05/02 03:31:27;;;;;;;6.53;3.08;;;;;;;;;;5081456;28;32535;-72
2021/05/02 03:33:54;;;;;;;4.50;3.40;;;;;;;;;;5081524;28;32310;-72
2021/05/02 03:36:25;;;;;;;7.80;4.18;;;;;;;;;;5081473;28;31872;-73
2021/05/02 03:38:51;;;;;;;5.53;3.05;;;;;;;;;;5078649;28;32973;-73
2021/05/02 03:41:18;;;;;;;12.68;3.47;;;;;;;;;;5081448;28;32601;-72
2021/05/02 03:43:43;;;;;;;8.27;3.60;;;;;;;;;;5080049;28;32176;-73
2021/05/02 03:46:23;;;;;;;9.35;3.58;;;;;;;;;;5081282;28;31851;-72
2021/05/02 03:48:53;;;;;;;5.70;3.63;;;;;;;;;;5078825;28;32187;-73
2021/05/02 03:51:19;;;;;;;7.95;4.10;;;;;;;;;;5079464;28;32525;-72
2021/05/02 03:53:45;;;;;;;8.80;3.40;;;;;;;;;;5081424;28;33176;-72
2021/05/02 03:56:10;;;;;;;5.75;3.47;;;;;;;;;;5081365;28;32511;-73
2021/05/02 03:58:36;;;;;;;6.82;3.50;;;;;;;;;;5080553;28;32093;-72
2021/05/02 04:01:02;;;;;;;5.10;3.63;;;;;;;;;;5080799;28;33335;-72
2021/05/02 04:03:27;;;;;;;4.35;3.60;;;;;;;;;;5080502;28;32311;-72
2021/05/02 04:05:53;;;;;;;6.03;3.85;;;;;;;;;;5081280;28;32529;-72
2021/05/02 04:08:19;;;;;;;7.90;3.88;;;;;;;;;;5080387;28;32215;-72
2021/05/02 04:10:45;;;;;;;5.28;3.60;;;;;;;;;;5080211;28;33531;-72
2021/05/02 04:13:10;;;;;;;7.85;3.63;;;;;;;;;;5080488;28;32342;-72
2021/05/02 04:15:36;;;;;;;4.82;3.70;;;;;;;;;;5081035;28;31854;-72
2021/05/02 04:18:02;;;;;;;4.40;3.25;;;;;;;;;;5079887;28;32145;-73
2021/05/02 04:20:27;;;;;;;5.68;3.58;;;;;;;;;;5080442;28;32657;-72
2021/05/02 04:22:53;;;;;;;6.25;3.65;;;;;;;;;;5097106;28;32072;-73
2021/05/02 04:25:19;;;;;;;5.68;3.38;;;;;;;;;;5084214;28;31931;-74
2021/05/02 04:27:44;;;;;;;5.55;3.20;;;;;;;;;;5084231;28;31984;-73
2021/05/02 04:30:10;;;;;;;5.40;3.60;;;;;;;;;;5084047;28;33226;-73
2021/05/02 04:32:36;;;;;;;5.35;3.45;;;;;;;;;;5083202;28;32164;-73
2021/05/02 04:35:02;;;;;;;7.35;4.05;;;;;;;;;;5083880;28;32086;-72
2021/05/02 04:37:28;;;;;;;5.18;3.38;;;;;;;;;;5084376;28;31679;-72
2021/05/02 04:39:54;;;;;;;5.35;4.05;;;;;;;;;;5084507;28;32345;-72
2021/05/02 04:42:20;;;;;;;8.18;4.68;;;;;;;;;;5084248;28;32226;-72
2021/05/02 04:44:46;;;;;;;5.25;3.70;;;;;;;;;;5083986;28;31860;-72
2021/05/02 04:47:16;;;;;;;8.90;4.63;;;;;;;;;;5083709;28;32715;-72
2021/05/02 04:49:42;;;;;;;13.18;4.82;;;;;;;;;;5081270;28;33253;-73
2021/05/02 04:52:08;;;;;;;8.18;4.82;;;;;;;;;;5083646;28;33102;-73
2021/05/02 04:54:34;;;;;;;13.52;5.32;;;;;;;;;;5083223;28;31923;-74
2021/05/02 04:56:59;;;;;;;9.30;5.38;;;;;;;;;;5083838;28;32191;-73
2021/05/02 04:59:25;;;;;;;12.25;5.25;;;;;;;;;;5083523;28;32505;-73
2021/05/02 05:01:51;;;;;;;8.55;5.65;;;;;;;;;;5084035;28;32934;-73
2021/05/02 05:04:16;;;;;;;9.65;6.25;;;;;;;;;;5083506;28;31922;-71
2021/05/02 05:06:42;;;;;;;9.35;6.93;;;;;;;;;;5083707;28;37078;-71
2021/05/02 05:09:08;;;;;;;10.07;6.57;;;;;;;;;;5083749;28;33195;-73
2021/05/02 05:11:34;;;;;;;10.95;6.32;;;;;;;;;;5083287;28;33000;-73
2021/05/02 05:14:00;;;;;;;12.38;7.75;;;;;;;;;;5083902;28;32991;-71
2021/05/02 05:16:25;;;;;;;11.73;7.10;;;;;;;;;;5083807;28;31935;-71
2021/05/02 05:18:51;;;;;;;10.48;6.68;;;;;;;;;;5082589;28;33099;-69
2021/05/02 05:21:17;;;;;;;13.68;7.00;;;;;;;;;;5083435;28;32344;-71
2021/05/02 05:23:42;;;;;;;13.32;8.27;;;;;;;;;;5083557;28;31957;-72
2021/05/02 05:26:08;;;;;;;12.60;7.20;;;;;;;;;;5082774;28;32960;-69
2021/05/02 05:28:34;;;;;;;12.23;7.20;;;;;;;;;;5083056;28;32633;-71
2021/05/02 05:30:59;;;;;;;13.55;7.80;;;;;;;;;;5081575;28;38031;-73
2021/05/02 05:33:31;;;;;;;18.13;8.18;;;;;;;;;;5081037;28;30345;-73
2021/05/02 05:35:57;;;;;;;12.60;7.00;;;;;;;;;;5080893;28;31640;-72
2021/05/02 05:38:23;;;;;;;17.10;8.55;;;;;;;;;;5083193;28;32569;-71
2021/05/02 05:40:49;;;;;;;16.45;8.57;;;;;;;;;;5083117;28;32411;-71
2021/05/02 05:43:14;;;;;;;17.60;8.45;;;;;;;;;;5082672;28;31870;-72
2021/05/02 05:45:40;;;;;;;14.00;7.90;;;;;;;;;;5081227;28;30485;-71
2021/05/02 05:48:06;;;;;;;11.85;7.63;;;;;;;;;;5082696;28;32483;-71
2021/05/02 05:50:32;;;;;;;17.35;8.48;;;;;;;;;;5082968;28;32254;-72
2021/05/02 05:52:58;;;;;;;13.05;7.82;;;;;;;;;;5083123;28;32894;-72
2021/05/02 05:55:24;;;;;;;12.65;8.00;;;;;;;;;;5083001;28;32966;-72
2021/05/02 05:57:51;;;;;;;14.65;8.70;;;;;;;;;;5082555;28;32585;-72
2021/05/02 06:00:17;;;;;;;12.45;7.75;;;;;;;;;;5082704;28;32187;-71
2021/05/02 06:02:43;;;;;;;12.40;7.95;;;;;;;;;;5082994;28;32045;-73
2021/05/02 06:05:09;;;;;;;18.15;8.50;;;;;;;;;;5082483;28;33223;-72
2021/05/02 06:07:35;;;;;;;14.52;6.90;;;;;;;;;;5081439;28;31752;-71
2021/05/02 06:10:01;;;;;;;15.02;7.00;;;;;;;;;;5080475;28;30692;-72
2021/05/02 06:12:27;;;;;;;14.73;6.50;;;;;;;;;;5083668;28;32785;-72
2021/05/02 06:14:52;;;;;;;13.20;7.43;;;;;;;;;;5082864;28;33068;-72
2021/05/02 06:17:18;;;;;;;10.02;6.45;;;;;;;;;;5082707;28;32493;-71
2021/05/02 06:19:44;;;;;;;15.18;6.18;;;;;;;;;;5082750;28;33151;-71
2021/05/02 06:22:10;;;;;;;10.90;6.20;;;;;;;;;;5082867;28;32082;-72
2021/05/02 06:24:35;;;;;;;13.48;5.68;;;;;;;;;;5081539;28;32005;-72
2021/05/02 06:27:01;;;;;;;7.80;5.20;;;;;;;;;;5080388;28;33475;-72
2021/05/02 06:29:27;;;;;;;12.52;4.32;;;;;;;;;;5082634;28;32308;-72
2021/05/02 06:31:52;;;;;;;8.55;4.30;;;;;;;;;;5082394;28;32258;-72
2021/05/02 06:34:18;;;;;;;7.82;3.67;;;;;;;;;;5082586;28;32912;-72
2021/05/02 06:36:45;;;;;;;13.35;3.83;;;;;;;;;;5082498;28;32646;-72
2021/05/02 06:39:10;;;;;;;8.40;3.72;;;;;;;;;;5082336;28;32244;-72
2021/05/02 06:41:39;;;;;;;5.78;3.13;;;;;;;;;;5080046;28;31755;-72
2021/05/02 06:44:04;;;;;;;13.30;3.67;;;;;;;;;;5081818;28;32072;-72
2021/05/02 06:46:31;;;;;;;10.57;3.65;;;;;;;;;;5081245;28;32508;-72
2021/05/02 06:48:57;;;;;;;10.98;3.25;;;;;;;;;;5064040;28;38437;-72
2021/05/02 06:51:23;;;;;;;7.57;3.30;;;;;;;;;;5080860;28;31916;-72
2021/05/02 06:53:49;;;;;;;13.02;3.70;;;;;;;;;;5082198;28;32210;-72
2021/05/02 06:56:14;;;;;;;8.43;2.85;;;;;;;;;;5081746;28;32245;-72
2021/05/02 06:58:40;;;;;;;7.95;3.10;;;;;;;;;;5080389;28;32275;-72
2021/05/02 07:01:06;;;;;;;5.97;3.03;;;;;;;;;;5079615;28;32954;-72
2021/05/02 07:03:32;;;;;;;10.13;2.92;;;;;;;;;;5082149;28;32975;-71
2021/05/02 07:05:58;;;;;;;10.32;2.58;;;;;;;;;;5081924;28;32557;-72
2021/05/02 07:08:24;;;;;;;9.18;2.95;;;;;;;;;;5081769;28;32273;-72
2021/05/02 07:10:50;;;;;;;6.85;2.50;;;;;;;;;;5081900;28;31966;-72
2021/05/02 07:13:15;;;;;;;10.40;3.08;;;;;;;;;;5081904;28;32068;-72
2021/05/02 07:15:41;;;;;;;6.97;2.55;;;;;;;;;;5081561;28;33594;-72
2021/05/02 07:18:07;;;;;;;8.35;2.42;;;;;;;;;;5079708;28;31349;-72
2021/05/02 07:20:33;;;;;;;10.38;2.92;;;;;;;;;;5081145;28;32845;-72
2021/05/02 07:22:59;;;;;;;9.68;3.15;;;;;;;;;;5081807;28;32742;-72
2021/05/02 07:25:26;;;;;;;7.57;3.67;;;;;;;;;;5081178;28;32645;-72
2021/05/02 07:27:52;;;;;;;5.95;3.38;;;;;;;;;;5079365;28;30960;-72
2021/05/02 07:30:19;;;;;;;10.70;3.33;;;;;;;;;;5080865;28;32209;-72
2021/05/02 07:32:44;;;;;;;13.25;3.08;;;;;;;;;;5081394;28;31660;-72
2021/05/02 07:35:11;;;;;;;8.05;2.50;;;;;;;;;;5080701;28;20132;-72
2021/05/02 07:37:37;;;;;;;7.43;2.53;;;;;;;;;;5081536;28;32395;-72
2021/05/02 07:40:03;;;;;;;11.25;2.38;;;;;;;;;;5080704;28;31953;-72
2021/05/02 07:42:29;;;;;;;12.10;2.90;;;;;;;;;;5081302;28;32038;-72
2021/05/02 07:44:55;;;;;;;10.23;2.83;;;;;;;;;;5080358;28;32285;-72
2021/05/02 07:47:20;;;;;;;8.95;2.80;;;;;;;;;;5081189;28;31961;-72
2021/05/02 07:49:47;;;;;;;5.63;2.40;;;;;;;;;;5077166;28;32399;-72
2021/05/02 07:52:13;;;;;;;7.22;2.60;;;;;;;;;;5081088;28;31980;-72
2021/05/02 07:54:39;;;;;;;9.25;3.40;;;;;;;;;;5081409;28;33365;-72
2021/05/02 07:57:04;;;;;;;10.50;2.67;;;;;;;;;;5081029;28;32421;-72
2021/05/02 07:59:30;;;;;;;6.97;2.97;;;;;;;;;;5080050;28;32859;-72
2021/05/02 08:01:56;;;;;;;12.48;2.72;;;;;;;;;;5081051;28;32201;-73
2021/05/02 08:04:21;;;;;;;8.75;2.53;;;;;;;;;;5080875;28;32614;-73
2021/05/02 08:06:47;;;;;;;10.30;2.28;;;;;;;;;;5081009;28;33150;-72
2021/05/02 08:09:13;;;;;;;9.35;2.15;;;;;;;;;;5080331;28;31912;-72
2021/05/02 08:11:38;;;;;;;7.88;2.17;;;;;;;;;;5081142;28;32037;-72
2021/05/02 08:14:04;;;;;;;12.85;2.10;;;;;;;;;;5080888;28;32748;-72
2021/05/02 08:16:30;;;;;;;5.72;1.63;;;;;;;;;;5080995;28;33135;-72
2021/05/02 08:18:55;;;;;;;5.15;1.52;;;;;;;;;;5080966;28;32316;-72
2021/05/02 08:21:23;;;;;;;4.70;1.40;;;;;;;;;;5080632;28;32078;-72
2021/05/02 08:23:49;;;;;;;5.00;1.70;;;;;;;;;;5080606;28;33618;-72
2021/05/02 08:26:15;;;;;;;6.13;2.17;;;;;;;;;;5080818;28;32223;-70
2021/05/02 08:28:41;;;;;;;5.05;1.55;;;;;;;;;;5080879;28;32895;-72
2021/05/02 08:31:06;;;;;;;6.68;1.70;;;;;;;;;;5080440;28;32050;-73
2021/05/02 08:33:32;;;;;;;4.65;1.45;;;;;;;;;;5080260;28;33199;-73
2021/05/02 08:35:58;;;;;;;5.38;1.42;;;;;;;;;;5080812;28;32371;-72
2021/05/02 08:38:24;;;;;;;3.88;1.85;;;;;;;;;;5080621;28;32897;-73
2021/05/02 08:40:49;;;;;;;6.78;1.65;;;;;;;;;;5082012;28;32938;-73
2021/05/02 08:43:17;;;;;;;7.55;1.95;;;;;;;;;;5080751;28;33728;-73
2021/05/02 08:45:42;;;;;;;7.07;1.67;;;;;;;;;;5080075;28;32289;-73
2021/05/02 08:48:08;;;;;;;4.70;1.65;;;;;;;;;;5080562;28;31939;-73
2021/05/02 08:50:34;;;;;;;13.85;1.85;;;;;;;;;;5079535;28;32260;-73
2021/05/02 08:53:00;;;;;;;4.47;1.90;;;;;;;;;;5080458;28;32871;-73
2021/05/02 08:55:25;;;;;;;4.00;2.05;;;;;;;;;;5080359;28;32430;-73
2021/05/02 08:57:51;;;;;;;8.35;2.42;;;;;;;;;;5080408;28;32259;-73
2021/05/02 09:00:17;;;;;;;4.28;1.70;;;;;;;;;;5080290;28;32464;-73
2021/05/02 09:02:52;;;;;;;3.13;1.67;;;;;;;;;;5080361;28;32582;-73
2021/05/02 09:05:17;;;;;;;4.38;1.98;;;;;;;;;;5079090;28;30868;-73
2021/05/02 09:07:44;;;;;;;7.65;2.58;;;;;;;;;;5080258;28;31894;-73
2021/05/02 09:10:10;;;;;;;8.15;2.03;;;;;;;;;;5081486;28;30703;-73
2021/05/02 09:12:37;;;;;;;7.78;1.88;;;;;;;;;;5083713;28;32535;-73
2021/05/02 09:15:06;;;;;;;7.45;2.28;;;;;;;;;;5083076;28;32335;-73
2021/05/02 09:17:47;;;;;;;10.50;2.15;;;;;;;;;;5083613;28;31862;-73
2021/05/02 09:20:13;;;;;;;6.50;1.98;;;;;;;;;;5082040;28;33076;-72
2021/05/02 09:22:38;;;;;;;6.05;1.73;;;;;;;;;;5082694;28;32544;-73
2021/05/02 09:25:05;;;;;;;3.33;1.88;;;;;;;;;;5083453;28;33146;-73
2021/05/02 09:27:32;;;;;;;6.88;2.78;;;;;;;;;;5083565;28;32322;-72
2021/05/02 09:30:17;;;;;;;5.05;2.35;;;;;;;;;;5081290;28;30424;-72
2021/05/02 09:32:45;;;;;;;4.95;1.92;;;;;;;;;;5082974;28;32632;-71
2021/05/02 09:35:30;;;;;;;5.10;2.40;;;;;;;;;;5082942;28;32202;-71
2021/05/02 09:38:15;;;;;;;14.10;2.45;;;;;;;;;;5083592;28;32019;-72
2021/05/02 09:40:52;;;;;;;4.57;1.67;;;;;;;;;;5080569;28;33012;-71
2021/05/02 09:43:29;;;;;;;5.43;1.90;;;;;;;;;;5080410;28;32318;-72
2021/05/02 09:46:24;;;;;;;9.27;1.48;;;;;;;;;;5082689;28;32241;-71
2021/05/02 09:48:53;;;;;;;3.17;1.27;;;;;;;;;;5080311;28;31909;-72
2021/05/02 09:51:23;;;;;;;5.25;1.60;;;;;;;;;;5082832;28;32892;-72
2021/05/02 09:54:07;;;;;;;5.60;1.58;;;;;;;;;;5082641;28;32755;-72
2021/05/02 09:56:38;;;;;;;3.92;1.63;;;;;;;;;;5082899;28;32940;-73
2021/05/02 09:59:04;;;;;;;7.90;2.30;;;;;;;;;;5082781;28;31577;-72
2021/05/02 10:01:30;;;;;;;4.25;1.80;;;;;;;;;;5082996;28;31680;-72
2021/05/02 10:03:59;;;;;;;6.20;1.75;;;;;;;;;;5082962;28;32529;-72
2021/05/02 10:06:33;;;;;;;3.90;2.13;;;;;;;;;;5082776;28;32365;-72
2021/05/02 10:08:59;;;;;;;13.73;2.35;;;;;;;;;;5082442;28;32586;-72
2021/05/02 10:11:25;;;;;;;4.80;1.50;;;;;;;;;;5082681;28;32070;-72
2021/05/02 10:13:51;;;;;;;13.10;1.70;;;;;;;;;;5082546;28;32587;-72
2021/05/02 10:16:16;;;;;;;6.18;1.70;;;;;;;;;;5081755;28;33091;-72
2021/05/02 10:18:42;;;;;;;3.10;0.88;;;;;;;;;;5082317;28;31942;-72
2021/05/02 10:21:09;;;;;;;2.65;1.35;;;;;;;;;;5081464;28;33053;-72
2021/05/02 10:23:35;;;;;;;4.70;1.98;;;;;;;;;;5080810;28;30978;-73
2021/05/02 10:26:02;;;;;;;3.10;1.25;;;;;;;;;;5081557;28;32924;-72
2021/05/02 10:28:29;;;;;;;5.07;1.35;;;;;;;;;;5082606;28;32754;-72
2021/05/02 10:30:58;;;;;;;3.22;1.45;;;;;;;;;;5082602;28;32101;-72
2021/05/02 10:33:34;;;;;;;3.30;2.05;;;;;;;;;;5082248;28;33548;-72
2021/05/02 10:36:02;;;;;;;4.15;2.10;;;;;;;;;;5082183;28;32279;-72
2021/05/02 10:38:47;;;;;;;9.10;2.70;;;;;;;;;;5081518;28;32807;-72
2021/05/02 10:41:19;;;;;;;7.20;3.53;;;;;;;;;;5082357;28;31943;-72
2021/05/02 10:43:45;;;;;;;10.68;3.33;;;;;;;;;;5082452;28;33569;-72
2021/05/02 10:46:31;;;;;;;8.55;2.55;;;;;;;;;;5081852;28;32561;-72
2021/05/02 10:48:56;;;;;;;5.93;2.65;;;;;;;;;;5081591;28;31770;-73
2021/05/02 10:51:25;;;;;;;5.38;2.20;;;;;;;;;;5081880;28;32511;-72
2021/05/02 10:54:07;;;;;;;7.13;2.00;;;;;;;;;;5081265;28;33016;-72
2021/05/02 10:56:43;;;;;;;4.97;2.30;;;;;;;;;;5080911;28;33174;-72
2021/05/02 10:59:09;;;;;;;6.63;2.58;;;;;;;;;;5081578;28;32538;-72
2021/05/02 11:01:34;;;;;;;3.28;1.65;;;;;;;;;;5082246;28;32181;-72
2021/05/02 11:04:00;;;;;;;8.23;1.98;;;;;;;;;;5081391;28;33532;-72
2021/05/02 11:06:41;;;;;;;4.28;2.10;;;;;;;;;;5082070;28;32296;-72
2021/05/02 11:09:14;;;;;;;6.80;2.10;;;;;;;;;;5080138;28;30513;-72
2021/05/02 11:11:42;;;;;;;4.85;1.92;;;;;;;;;;5082082;28;32056;-72
2021/05/02 11:16:41;;;;;;;7.13;2.08;;;;;;;;;;5081932;28;32201;-72
2021/05/02 11:19:16;;;;;;;5.32;2.10;;;;;;;;;;5081883;28;32843;-73
2021/05/02 11:21:48;;;;;;;5.53;1.73;;;;;;;;;;5079046;28;32013;-73
2021/05/02 11:24:16;;;;;;;4.30;1.45;;;;;;;;;;5083790;28;33235;-71
2021/05/02 11:27:06;;;;;;;5.13;1.60;;;;;;;;;;5081704;28;33266;-72
2021/05/02 11:29:52;;;;;;;4.18;1.67;;;;;;;;;;5078840;28;31893;-73
2021/05/02 11:32:26;;;;;;;3.85;1.65;;;;;;;;;;5078356;28;32400;-73
2021/05/02 11:34:52;;;;;;;1.73;1.05;;;;;;;;;;5081410;28;32668;-73
2021/05/02 11:37:37;;;;;;;8.48;2.20;;;;;;;;;;5080187;28;32168;-72
2021/05/02 11:40:23;;;;;;;2.83;1.65;;;;;;;;;;5081069;28;32889;-72
2021/05/02 11:43:01;;;;;;;2.42;1.60;;;;;;;;;;5066835;28;31413;-72
2021/05/02 11:45:39;;;;;;;4.80;1.52;;;;;;;;;;5081376;28;33206;-73
2021/05/02 11:48:06;;;;;;;4.65;1.60;;;;;;;;;;5080821;28;32309;-73
2021/05/02 11:50:42;;;;;;;4.28;2.03;;;;;;;;;;5080637;28;32034;-74
2021/05/02 11:53:08;;;;;;;1.23;0.93;;;;;;;;;;5080761;28;32112;-73
2021/05/02 11:55:38;;;;;;;5.30;1.50;;;;;;;;;;5080620;28;32586;-73
2021/05/02 11:58:05;;;;;;;1.85;0.80;;;;;;;;;;5080811;28;33091;-73
2021/05/02 12:00:37;;;;;;;5.80;1.40;;;;;;;;;;5080918;28;32760;-73
2021/05/02 12:03:04;;;;;;;3.30;1.20;;;;;;;;;;5081166;28;32365;-72
2021/05/02 12:05:29;;;;;;;2.17;1.02;;;;;;;;;;5081092;28;32882;-73
2021/05/02 12:08:11;;;;;;;4.15;1.60;;;;;;;;;;5081049;28;32378;-73
2021/05/02 12:10:37;;;;;;;5.38;1.55;;;;;;;;;;5078368;28;32650;-73
2021/05/02 12:13:05;;;;;;;5.43;1.65;;;;;;;;;;5080947;28;32113;-73
2021/05/02 12:15:31;;;;;;;2.78;1.90;;;;;;;;;;5078890;28;33609;-73
2021/05/02 12:17:57;;;;;;;4.53;2.10;;;;;;;;;;5080057;28;33137;-73
2021/05/02 12:20:23;;;;;;;5.90;2.28;;;;;;;;;;5080833;28;31926;-73
2021/05/02 12:22:49;;;;;;;4.50;2.45;;;;;;;;;;5081011;28;31980;-74
2021/05/02 12:25:16;;;;;;;3.97;2.28;;;;;;;;;;5096023;28;30994;-73
2021/05/02 12:27:58;;;;;;;4.45;2.10;;;;;;;;;;5078372;28;33173;-73
2021/05/02 12:30:24;;;;;;;6.50;2.80;;;;;;;;;;5080323;28;32634;-73
2021/05/02 12:32:50;;;;;;;2.70;1.75;;;;;;;;;;5080825;28;32927;-73
2021/05/02 12:35:16;;;;;;;4.18;2.05;;;;;;;;;;5079327;28;33205;-73
2021/05/02 12:37:42;;;;;;;3.33;2.08;;;;;;;;;;5080781;28;32209;-73
2021/05/02 12:40:08;;;;;;;2.85;2.20;;;;;;;;;;5080375;28;31942;-73
2021/05/02 12:42:35;;;;;;;14.35;3.42;;;;;;;;;;5078928;28;30703;-74
2021/05/02 12:45:01;;;;;;;4.85;3.28;;;;;;;;;;5064624;28;30969;-74
2021/05/02 12:47:27;;;;;;;6.38;2.85;;;;;;;;;;5084093;28;32416;-74
2021/05/02 12:49:55;;;;;;;5.15;2.35;;;;;;;;;;5082183;28;30325;-73
2021/05/02 12:52:27;;;;;;;5.45;2.45;;;;;;;;;;5082426;28;30613;-73
2021/05/02 12:54:53;;;;;;;12.38;2.70;;;;;;;;;;5081282;28;33607;-74
2021/05/02 12:57:26;;;;;;;6.53;1.90;;;;;;;;;;5083205;28;33180;-73
2021/05/02 13:02:29;;;;;;;2.70;1.88;;;;;;;;;;5083980;28;31934;-73
2021/05/02 13:04:56;;;;;;;3.40;1.85;;;;;;;;;;5081247;28;32258;-73
2021/05/02 13:07:31;;;;;;;3.13;1.50;;;;;;;;;;5082724;28;33237;-73
2021/05/02 13:09:57;;;;;;;4.55;1.58;;;;;;;;;;5083502;28;31816;-73
2021/05/02 13:12:23;;;;;;;8.98;2.63;;;;;;;;;;5083994;28;32166;-73
2021/05/02 13:15:11;;;;;;;5.82;1.83;;;;;;;;;;5083148;28;32617;-73
2021/05/02 13:17:36;;;;;;;6.25;1.90;;;;;;;;;;5083284;28;32217;-73
2021/05/02 13:20:03;;;;;;;2.78;1.45;;;;;;;;;;5083395;28;31798;-73
2021/05/02 13:22:29;;;;;;;4.28;1.98;;;;;;;;;;5083530;28;32061;-73
2021/05/02 13:24:54;;;;;;;4.72;2.55;;;;;;;;;;5083680;28;33615;-74
2021/05/02 13:27:32;;;;;;;8.32;3.40;;;;;;;;;;5083182;28;32252;-74
2021/05/02 13:29:58;;;;;;;4.63;2.38;;;;;;;;;;5083619;28;31826;-73
2021/05/02 13:32:23;;;;;;;10.52;2.75;;;;;;;;;;5083736;28;32043;-73
2021/05/02 13:34:49;;;;;;;5.47;2.60;;;;;;;;;;5083144;28;32512;-73
2021/05/02 13:37:15;;;;;;;6.18;2.42;;;;;;;;;;5083453;28;32905;-73
2021/05/02 13:39:41;;;;;;;7.88;2.55;;;;;;;;;;5081112;28;30310;-73
2021/05/02 13:42:08;;;;;;;6.28;2.45;;;;;;;;;;5081489;28;30314;-73
2021/05/02 13:44:34;;;;;;;8.80;2.75;;;;;;;;;;5083244;28;32552;-73
2021/05/02 13:47:00;;;;;;;4.07;2.03;;;;;;;;;;5083425;28;32422;-73
2021/05/02 13:49:25;;;;;;;6.22;2.80;;;;;;;;;;5083202;28;32840;-73
2021/05/02 13:51:51;;;;;;;6.55;2.97;;;;;;;;;;5081290;28;30895;-73
2021/05/02 13:54:18;;;;;;;7.60;2.55;;;;;;;;;;5082940;28;32619;-73
2021/05/02 13:56:44;;;;;;;8.57;3.25;;;;;;;;;;5082634;28;33141;-73
2021/05/02 13:59:09;;;;;;;4.82;2.72;;;;;;;;;;5081929;28;31800;-74
2021/05/02 14:01:35;;;;;;;5.40;2.67;;;;;;;;;;5083088;28;32924;-73
2021/05/02 14:04:01;;;;;;;6.78;3.00;;;;;;;;;;5082859;28;32723;-73
2021/05/02 14:06:28;;;;;;;8.77;3.58;;;;;;;;;;5082517;28;32258;-73
2021/05/02 14:08:54;;;;;;;5.88;2.78;;;;;;;;;;5082824;28;31591;-72
2021/05/02 14:11:20;;;;;;;8.68;2.70;;;;;;;;;;5082602;28;32685;-73
2021/05/02 14:13:46;;;;;;;5.20;2.45;;;;;;;;;;5082847;28;32530;-73
2021/05/02 14:16:12;;;;;;;3.65;1.98;;;;;;;;;;5082249;28;32217;-72
2021/05/02 14:18:38;;;;;;;10.15;2.28;;;;;;;;;;5082414;28;31967;-73
2021/05/02 14:21:04;;;;;;;3.65;2.45;;;;;;;;;;5082759;28;31968;-73
2021/05/02 14:23:29;;;;;;;7.40;1.98;;;;;;;;;;5082632;28;32531;-73
2021/05/02 14:25:57;;;;;;;3.33;1.67;;;;;;;;;;5082619;28;37974;-74
2021/05/02 14:28:23;;;;;;;4.63;2.22;;;;;;;;;;5081300;28;31938;-74
2021/05/02 14:30:49;;;;;;;5.50;1.88;;;;;;;;;;5082780;28;32094;-73
2021/05/02 14:33:15;;;;;;;4.38;1.63;;;;;;;;;;5080931;28;32556;-73
2021/05/02 14:35:42;;;;;;;5.20;1.80;;;;;;;;;;5082095;28;33161;-72
2021/05/02 14:38:07;;;;;;;2.55;0.88;;;;;;;;;;5082475;28;31875;-73
2021/05/02 14:40:33;;;;;;;4.60;1.77;;;;;;;;;;5081890;28;32042;-73
2021/05/02 14:42:59;;;;;;;1.15;0.95;;;;;;;;;;5082424;28;32771;-73
2021/05/02 14:45:24;;;;;;;2.72;1.50;;;;;;;;;;5082318;28;32629;-73